Avoca, Indiana
Current Conditions -  °F | °C
As of 5:53 PM on Monday 24 Nov 2014 (Local Time) from KBMG Reporting Station
Overcast Overcast  
Wind Chill: -1°   Ceiling: 4600
Heat Index:   Visibility: 10mi
Dew Point: -2°   Wind: 22mph
Humidity: 65%   Direction: 260°W
Pressure: 29.81"   Gusts: 29mph
Location:  38.91°N, 86.55°W
Report Text: KBMG 242253Z 26019G25KT 10SM SCT038 OVC046 04/M02 A2981 RMK AO2 SLP094 T00441017
Loading
Personal Weather Stations






























Interactive Weather Map New forecast layout! Learn more

10-Day Weather Forecast

Advertisements
Track Severe Weather on mobile